Honolulu, HI

1:13 PM HST on December 10, 2016 (GMT -1000)
| | Change Station

Elev -9999 ft 0.00 °N, 0.00 °E | Updated 9 minutes ago

Partly Cloudy
Partly Cloudy
76 °F
Feels Like 76 °F
N
5
Wind Variable Wind from East
Gusts mph

Today
High -- | Low -- °F
--% Chance of Precip.
Yesterday
High -- | Low -- °F
Precip. -- in
Pressure 29.90 in
Visibility 7.0 miles
Clouds Few 2500 ft
Dew Point 68 °F
Humidity 77%
Rainfall --
Snow Depth Not available.
6:58 AM 5:49 PM
Waxing Gibbous, 87% visible
METAR PHNG 102256Z 13008KT 7SM FEW025 26/22 A2991 RMK A02 SLP123 T02560217
Pressure 29.90 in
Visibility 7.0 miles
Clouds Few 2500 ft
Dew Point 68 °F
Humidity 77%
Rainfall --
Snow Depth Not available.
6:58 AM 5:49 PM
Waxing Gibbous, 87% visible
METAR PHNG 102256Z 13008KT 7SM FEW025 26/22 A2991 RMK A02 SLP123 T02560217

10-Day Weather Forecast

Almanac

Astronomy

Dec. 10, 2016 Rise Set
Actual Time
Civil Twilight
Nautical Twilight
Astronomical Twilight
Moon
Length of Visible Light
Length of Day
Tomorrow will be .
, % of the Moon is Illuminated

Today's Extremes

State Highs State Lows

Community

WunderPhotos

Upload Photos

1,956,670 photos uploaded!

WunderBlog® & News

Nearby

Air Quality

  Air Quality AQ Index Pollutant
Not available.

Snow Depth

Station Depth Elevation

Earthquake Activity

City Distance Mag. Time & Date
Minimum magnitude displayed is 2.5.

Coastal Water Temperatures

Place Temperature

Stations

Nearby Weather Stations

Station Location Temp. Windchill Dew Point Humidity Wind Precip. Elev Updated Type
                   

Watches & Warnings

There are currently no watches in effect.